sensor_id;sensor_type;location;lat;lon;timestamp;P1;durP1;ratioP1;P2;durP2;ratioP2
16127;SDS011;8168;49.036;7.690;2023-04-25T00:00:37;3.03;;;2.73;;
16127;SDS011;8168;49.036;7.690;2023-04-25T00:03:07;3.63;;;3.03;;
16127;SDS011;8168;49.036;7.690;2023-04-25T00:05:39;4.10;;;3.30;;
16127;SDS011;8168;49.036;7.690;2023-04-25T00:08:10;4.10;;;3.60;;
16127;SDS011;8168;49.036;7.690;2023-04-25T00:10:41;3.23;;;2.93;;
16127;SDS011;8168;49.036;7.690;2023-04-25T00:13:11;4.27;;;3.60;;
16127;SDS011;8168;49.036;7.690;2023-04-25T00:15:43;4.53;;;3.27;;
16127;SDS011;8168;49.036;7.690;2023-04-25T00:18:14;5.53;;;4.03;;
16127;SDS011;8168;49.036;7.690;2023-04-25T00:20:45;4.30;;;3.53;;
16127;SDS011;8168;49.036;7.690;2023-04-25T00:23:16;4.23;;;3.10;;
16127;SDS011;8168;49.036;7.690;2023-04-25T00:25:50;5.60;;;3.63;;
16127;SDS011;8168;49.036;7.690;2023-04-25T00:28:21;4.93;;;3.80;;
16127;SDS011;8168;49.036;7.690;2023-04-25T00:30:51;3.93;;;3.37;;
16127;SDS011;8168;49.036;7.690;2023-04-25T00:33:22;4.73;;;3.50;;
16127;SDS011;8168;49.036;7.690;2023-04-25T00:35:52;4.73;;;3.40;;
16127;SDS011;8168;49.036;7.690;2023-04-25T00:38:23;4.87;;;3.20;;
16127;SDS011;8168;49.036;7.690;2023-04-25T00:40:54;4.13;;;3.30;;
16127;SDS011;8168;49.036;7.690;2023-04-25T00:43:28;3.40;;;3.10;;
16127;SDS011;8168;49.036;7.690;2023-04-25T00:46:02;4.17;;;3.17;;
16127;SDS011;8168;49.036;7.690;2023-04-25T00:48:33;3.80;;;3.00;;
16127;SDS011;8168;49.036;7.690;2023-04-25T00:51:03;3.77;;;3.00;;
16127;SDS011;8168;49.036;7.690;2023-04-25T00:53:34;2.90;;;2.60;;
16127;SDS011;8168;49.036;7.690;2023-04-25T00:56:05;3.20;;;2.70;;
16127;SDS011;8168;49.036;7.690;2023-04-25T00:58:36;2.97;;;2.50;;
16127;SDS011;8168;49.036;7.690;2023-04-25T01:01:08;5.13;;;2.33;;
16127;SDS011;8168;49.036;7.690;2023-04-25T01:03:40;3.20;;;2.70;;
16127;SDS011;8168;49.036;7.690;2023-04-25T01:06:12;4.10;;;3.27;;
16127;SDS011;8168;49.036;7.690;2023-04-25T01:08:42;5.00;;;3.20;;
16127;SDS011;8168;49.036;7.690;2023-04-25T01:11:13;3.83;;;3.07;;
16127;SDS011;8168;49.036;7.690;2023-04-25T01:13:44;3.30;;;3.00;;
16127;SDS011;8168;49.036;7.690;2023-04-25T01:16:15;4.27;;;3.40;;
16127;SDS011;8168;49.036;7.690;2023-04-25T01:18:45;5.33;;;3.70;;
16127;SDS011;8168;49.036;7.690;2023-04-25T01:21:17;4.00;;;3.37;;
16127;SDS011;8168;49.036;7.690;2023-04-25T01:23:48;3.80;;;3.03;;
16127;SDS011;8168;49.036;7.690;2023-04-25T01:26:18;4.03;;;3.47;;
16127;SDS011;8168;49.036;7.690;2023-04-25T01:28:51;4.53;;;3.77;;
16127;SDS011;8168;49.036;7.690;2023-04-25T01:31:22;3.37;;;3.07;;
16127;SDS011;8168;49.036;7.690;2023-04-25T01:33:52;4.37;;;3.50;;
16127;SDS011;8168;49.036;7.690;2023-04-25T01:36:23;5.40;;;3.37;;
16127;SDS011;8168;49.036;7.690;2023-04-25T01:38:54;4.03;;;3.30;;
16127;SDS011;8168;49.036;7.690;2023-04-25T01:41:25;4.30;;;3.70;;
16127;SDS011;8168;49.036;7.690;2023-04-25T01:43:55;4.37;;;3.33;;
16127;SDS011;8168;49.036;7.690;2023-04-25T01:46:26;7.03;;;3.33;;
16127;SDS011;8168;49.036;7.690;2023-04-25T01:48:57;3.93;;;3.40;;
16127;SDS011;8168;49.036;7.690;2023-04-25T01:51:28;3.97;;;3.23;;
16127;SDS011;8168;49.036;7.690;2023-04-25T01:54:00;3.97;;;3.10;;
16127;SDS011;8168;49.036;7.690;2023-04-25T01:56:32;5.77;;;3.70;;
16127;SDS011;8168;49.036;7.690;2023-04-25T01:59:03;3.50;;;3.13;;
16127;SDS011;8168;49.036;7.690;2023-04-25T02:01:35;4.60;;;3.43;;
16127;SDS011;8168;49.036;7.690;2023-04-25T02:04:06;4.40;;;3.87;;
16127;SDS011;8168;49.036;7.690;2023-04-25T02:06:36;4.27;;;3.47;;
16127;SDS011;8168;49.036;7.690;2023-04-25T02:09:07;4.63;;;3.60;;
16127;SDS011;8168;49.036;7.690;2023-04-25T02:11:37;3.97;;;3.47;;
16127;SDS011;8168;49.036;7.690;2023-04-25T02:14:08;3.83;;;3.43;;
16127;SDS011;8168;49.036;7.690;2023-04-25T02:16:38;4.10;;;3.13;;
16127;SDS011;8168;49.036;7.690;2023-04-25T02:19:09;4.10;;;3.57;;
16127;SDS011;8168;49.036;7.690;2023-04-25T02:21:40;4.13;;;3.33;;
16127;SDS011;8168;49.036;7.690;2023-04-25T02:24:11;4.83;;;3.37;;
16127;SDS011;8168;49.036;7.690;2023-04-25T02:26:41;5.03;;;3.80;;
16127;SDS011;8168;49.036;7.690;2023-04-25T02:29:12;3.93;;;3.40;;
16127;SDS011;8168;49.036;7.690;2023-04-25T02:31:45;4.93;;;3.57;;
16127;SDS011;8168;49.036;7.690;2023-04-25T02:34:15;4.20;;;3.33;;
16127;SDS011;8168;49.036;7.690;2023-04-25T02:36:47;3.53;;;3.23;;
16127;SDS011;8168;49.036;7.690;2023-04-25T02:39:19;4.90;;;3.63;;
16127;SDS011;8168;49.036;7.690;2023-04-25T02:41:52;4.27;;;3.50;;
16127;SDS011;8168;49.036;7.690;2023-04-25T02:44:22;4.80;;;3.60;;
16127;SDS011;8168;49.036;7.690;2023-04-25T02:46:53;4.03;;;3.33;;
16127;SDS011;8168;49.036;7.690;2023-04-25T02:49:23;5.30;;;3.53;;
16127;SDS011;8168;49.036;7.690;2023-04-25T02:51:54;4.30;;;3.17;;
16127;SDS011;8168;49.036;7.690;2023-04-25T02:54:25;3.97;;;3.43;;
16127;SDS011;8168;49.036;7.690;2023-04-25T02:56:56;5.53;;;3.27;;
16127;SDS011;8168;49.036;7.690;2023-04-25T02:59:26;4.23;;;3.20;;
16127;SDS011;8168;49.036;7.690;2023-04-25T03:01:57;4.37;;;3.33;;
16127;SDS011;8168;49.036;7.690;2023-04-25T03:04:27;3.23;;;2.97;;
16127;SDS011;8168;49.036;7.690;2023-04-25T03:06:58;5.33;;;4.13;;
16127;SDS011;8168;49.036;7.690;2023-04-25T03:09:29;3.57;;;2.70;;
16127;SDS011;8168;49.036;7.690;2023-04-25T03:11:59;4.53;;;3.23;;
16127;SDS011;8168;49.036;7.690;2023-04-25T03:14:31;6.00;;;4.03;;
16127;SDS011;8168;49.036;7.690;2023-04-25T03:17:02;5.90;;;3.53;;
16127;SDS011;8168;49.036;7.690;2023-04-25T03:19:33;9.53;;;4.10;;
16127;SDS011;8168;49.036;7.690;2023-04-25T03:22:04;5.23;;;3.80;;
16127;SDS011;8168;49.036;7.690;2023-04-25T03:24:34;5.67;;;3.97;;
16127;SDS011;8168;49.036;7.690;2023-04-25T03:27:06;6.00;;;3.50;;
16127;SDS011;8168;49.036;7.690;2023-04-25T03:29:37;9.43;;;4.33;;
16127;SDS011;8168;49.036;7.690;2023-04-25T03:32:07;12.60;;;4.87;;
16127;SDS011;8168;49.036;7.690;2023-04-25T03:34:38;7.50;;;4.00;;
16127;SDS011;8168;49.036;7.690;2023-04-25T03:37:09;9.00;;;4.50;;
16127;SDS011;8168;49.036;7.690;2023-04-25T03:39:39;15.43;;;4.20;;
16127;SDS011;8168;49.036;7.690;2023-04-25T03:42:10;14.53;;;4.57;;
16127;SDS011;8168;49.036;7.690;2023-04-25T03:44:40;18.33;;;4.67;;
16127;SDS011;8168;49.036;7.690;2023-04-25T03:47:11;42.53;;;4.73;;
16127;SDS011;8168;49.036;7.690;2023-04-25T03:49:41;16.83;;;4.03;;
16127;SDS011;8168;49.036;7.690;2023-04-25T03:52:12;20.10;;;8.20;;
16127;SDS011;8168;49.036;7.690;2023-04-25T03:54:43;21.90;;;8.70;;
16127;SDS011;8168;49.036;7.690;2023-04-25T03:57:13;9.07;;;4.57;;
16127;SDS011;8168;49.036;7.690;2023-04-25T03:59:44;9.77;;;4.00;;
16127;SDS011;8168;49.036;7.690;2023-04-25T04:02:15;11.03;;;4.73;;
16127;SDS011;8168;49.036;7.690;2023-04-25T04:04:45;11.43;;;4.00;;
16127;SDS011;8168;49.036;7.690;2023-04-25T04:07:16;13.37;;;4.50;;
16127;SDS011;8168;49.036;7.690;2023-04-25T04:09:47;18.63;;;4.23;;
16127;SDS011;8168;49.036;7.690;2023-04-25T04:12:17;7.77;;;3.53;;
16127;SDS011;8168;49.036;7.690;2023-04-25T04:14:48;5.30;;;3.23;;
16127;SDS011;8168;49.036;7.690;2023-04-25T04:17:18;10.80;;;3.53;;
16127;SDS011;8168;49.036;7.690;2023-04-25T04:19:49;15.87;;;4.43;;
16127;SDS011;8168;49.036;7.690;2023-04-25T04:22:19;12.53;;;3.27;;
16127;SDS011;8168;49.036;7.690;2023-04-25T04:24:50;4.60;;;3.43;;
16127;SDS011;8168;49.036;7.690;2023-04-25T04:27:21;9.07;;;3.87;;
16127;SDS011;8168;49.036;7.690;2023-04-25T04:29:52;7.40;;;4.20;;
16127;SDS011;8168;49.036;7.690;2023-04-25T04:32:23;5.03;;;3.87;;
16127;SDS011;8168;49.036;7.690;2023-04-25T04:34:55;4.80;;;3.80;;
16127;SDS011;8168;49.036;7.690;2023-04-25T04:37:26;6.07;;;4.03;;
16127;SDS011;8168;49.036;7.690;2023-04-25T04:39:56;4.97;;;4.27;;
16127;SDS011;8168;49.036;7.690;2023-04-25T04:42:27;6.53;;;4.17;;
16127;SDS011;8168;49.036;7.690;2023-04-25T04:44:58;5.27;;;3.93;;
16127;SDS011;8168;49.036;7.690;2023-04-25T04:47:28;5.67;;;4.50;;
16127;SDS011;8168;49.036;7.690;2023-04-25T04:50:02;4.03;;;3.47;;
16127;SDS011;8168;49.036;7.690;2023-04-25T04:52:34;8.50;;;5.33;;
16127;SDS011;8168;49.036;7.690;2023-04-25T04:55:08;7.97;;;4.70;;
16127;SDS011;8168;49.036;7.690;2023-04-25T04:57:38;5.90;;;4.30;;
16127;SDS011;8168;49.036;7.690;2023-04-25T05:00:09;7.70;;;5.03;;
16127;SDS011;8168;49.036;7.690;2023-04-25T05:02:41;6.13;;;4.37;;
16127;SDS011;8168;49.036;7.690;2023-04-25T05:05:11;4.93;;;4.07;;
16127;SDS011;8168;49.036;7.690;2023-04-25T05:07:42;4.53;;;3.60;;
16127;SDS011;8168;49.036;7.690;2023-04-25T05:10:13;5.40;;;3.83;;
16127;SDS011;8168;49.036;7.690;2023-04-25T05:12:43;4.30;;;3.63;;
16127;SDS011;8168;49.036;7.690;2023-04-25T05:15:14;4.80;;;3.67;;
16127;SDS011;8168;49.036;7.690;2023-04-25T05:17:45;4.67;;;3.73;;
16127;SDS011;8168;49.036;7.690;2023-04-25T05:20:16;4.97;;;3.90;;
16127;SDS011;8168;49.036;7.690;2023-04-25T05:22:48;4.70;;;4.20;;
16127;SDS011;8168;49.036;7.690;2023-04-25T05:25:19;5.30;;;4.43;;
16127;SDS011;8168;49.036;7.690;2023-04-25T05:27:50;5.03;;;3.80;;
16127;SDS011;8168;49.036;7.690;2023-04-25T05:30:22;5.03;;;3.97;;
16127;SDS011;8168;49.036;7.690;2023-04-25T05:32:53;5.13;;;4.00;;
16127;SDS011;8168;49.036;7.690;2023-04-25T05:35:23;4.60;;;4.10;;
16127;SDS011;8168;49.036;7.690;2023-04-25T05:37:54;4.57;;;3.70;;
16127;SDS011;8168;49.036;7.690;2023-04-25T05:40:24;5.10;;;4.07;;
16127;SDS011;8168;49.036;7.690;2023-04-25T05:42:55;5.30;;;4.37;;
16127;SDS011;8168;49.036;7.690;2023-04-25T05:45:26;5.50;;;4.17;;
16127;SDS011;8168;49.036;7.690;2023-04-25T05:47:56;5.87;;;4.27;;
16127;SDS011;8168;49.036;7.690;2023-04-25T05:50:27;6.90;;;4.30;;
16127;SDS011;8168;49.036;7.690;2023-04-25T05:52:58;5.27;;;4.07;;
16127;SDS011;8168;49.036;7.690;2023-04-25T05:55:28;7.03;;;4.17;;
16127;SDS011;8168;49.036;7.690;2023-04-25T05:57:59;6.33;;;4.67;;
16127;SDS011;8168;49.036;7.690;2023-04-25T06:00:29;5.63;;;4.13;;
16127;SDS011;8168;49.036;7.690;2023-04-25T06:03:00;5.60;;;4.20;;
16127;SDS011;8168;49.036;7.690;2023-04-25T06:05:31;3.80;;;3.40;;
16127;SDS011;8168;49.036;7.690;2023-04-25T06:08:01;5.70;;;3.90;;
16127;SDS011;8168;49.036;7.690;2023-04-25T06:10:32;6.03;;;4.40;;
16127;SDS011;8168;49.036;7.690;2023-04-25T06:13:03;4.83;;;3.83;;
16127;SDS011;8168;49.036;7.690;2023-04-25T06:15:34;4.23;;;3.20;;
16127;SDS011;8168;49.036;7.690;2023-04-25T06:18:05;6.60;;;3.50;;
16127;SDS011;8168;49.036;7.690;2023-04-25T06:20:35;5.30;;;3.83;;
16127;SDS011;8168;49.036;7.690;2023-04-25T06:23:06;4.23;;;3.73;;
16127;SDS011;8168;49.036;7.690;2023-04-25T06:25:36;6.80;;;4.30;;
16127;SDS011;8168;49.036;7.690;2023-04-25T06:28:07;4.33;;;3.50;;
16127;SDS011;8168;49.036;7.690;2023-04-25T06:30:38;4.27;;;3.87;;
16127;SDS011;8168;49.036;7.690;2023-04-25T06:33:08;6.20;;;3.80;;
16127;SDS011;8168;49.036;7.690;2023-04-25T06:35:39;4.93;;;4.03;;
16127;SDS011;8168;49.036;7.690;2023-04-25T06:38:09;7.40;;;4.20;;
16127;SDS011;8168;49.036;7.690;2023-04-25T06:40:40;4.23;;;3.43;;
16127;SDS011;8168;49.036;7.690;2023-04-25T06:43:11;5.67;;;4.03;;
16127;SDS011;8168;49.036;7.690;2023-04-25T06:45:41;4.70;;;3.70;;
16127;SDS011;8168;49.036;7.690;2023-04-25T06:48:12;5.03;;;3.57;;
16127;SDS011;8168;49.036;7.690;2023-04-25T06:50:42;5.23;;;3.53;;
16127;SDS011;8168;49.036;7.690;2023-04-25T06:53:13;6.17;;;3.70;;
16127;SDS011;8168;49.036;7.690;2023-04-25T06:55:44;4.50;;;3.53;;
16127;SDS011;8168;49.036;7.690;2023-04-25T06:58:14;3.47;;;2.87;;
16127;SDS011;8168;49.036;7.690;2023-04-25T07:00:45;4.80;;;3.80;;
16127;SDS011;8168;49.036;7.690;2023-04-25T07:03:15;4.40;;;3.87;;
16127;SDS011;8168;49.036;7.690;2023-04-25T07:05:46;5.40;;;3.70;;
16127;SDS011;8168;49.036;7.690;2023-04-25T07:08:17;4.87;;;3.67;;
16127;SDS011;8168;49.036;7.690;2023-04-25T07:10:47;6.50;;;4.10;;
16127;SDS011;8168;49.036;7.690;2023-04-25T07:13:18;4.80;;;3.80;;
16127;SDS011;8168;49.036;7.690;2023-04-25T07:15:48;4.03;;;3.37;;
16127;SDS011;8168;49.036;7.690;2023-04-25T07:18:19;4.97;;;3.77;;
16127;SDS011;8168;49.036;7.690;2023-04-25T07:20:50;5.90;;;4.00;;
16127;SDS011;8168;49.036;7.690;2023-04-25T07:23:20;4.27;;;3.73;;
16127;SDS011;8168;49.036;7.690;2023-04-25T07:25:51;4.10;;;3.40;;
16127;SDS011;8168;49.036;7.690;2023-04-25T07:28:22;4.10;;;3.70;;
16127;SDS011;8168;49.036;7.690;2023-04-25T07:30:52;6.93;;;3.57;;
16127;SDS011;8168;49.036;7.690;2023-04-25T07:33:23;4.03;;;3.13;;
16127;SDS011;8168;49.036;7.690;2023-04-25T07:35:53;3.60;;;3.10;;
16127;SDS011;8168;49.036;7.690;2023-04-25T07:38:25;6.03;;;3.43;;
16127;SDS011;8168;49.036;7.690;2023-04-25T07:40:56;6.67;;;4.30;;
16127;SDS011;8168;49.036;7.690;2023-04-25T07:43:27;4.90;;;3.67;;
16127;SDS011;8168;49.036;7.690;2023-04-25T07:45:57;5.07;;;3.90;;
16127;SDS011;8168;49.036;7.690;2023-04-25T07:48:28;6.53;;;4.30;;
16127;SDS011;8168;49.036;7.690;2023-04-25T07:50:58;4.87;;;3.83;;
16127;SDS011;8168;49.036;7.690;2023-04-25T07:53:29;5.77;;;4.40;;
16127;SDS011;8168;49.036;7.690;2023-04-25T07:56:00;5.17;;;3.80;;
16127;SDS011;8168;49.036;7.690;2023-04-25T07:58:30;5.00;;;3.80;;
16127;SDS011;8168;49.036;7.690;2023-04-25T08:01:01;5.20;;;4.70;;
16127;SDS011;8168;49.036;7.690;2023-04-25T08:03:32;4.50;;;3.00;;
16127;SDS011;8168;49.036;7.690;2023-04-25T08:06:02;3.73;;;3.17;;
16127;SDS011;8168;49.036;7.690;2023-04-25T08:08:33;6.97;;;3.60;;
16127;SDS011;8168;49.036;7.690;2023-04-25T08:11:04;4.90;;;3.40;;
16127;SDS011;8168;49.036;7.690;2023-04-25T08:13:34;5.77;;;3.97;;
16127;SDS011;8168;49.036;7.690;2023-04-25T08:16:05;5.47;;;4.20;;
16127;SDS011;8168;49.036;7.690;2023-04-25T08:18:35;4.87;;;3.63;;
16127;SDS011;8168;49.036;7.690;2023-04-25T08:21:06;5.10;;;3.77;;
16127;SDS011;8168;49.036;7.690;2023-04-25T08:23:38;5.57;;;4.10;;
16127;SDS011;8168;49.036;7.690;2023-04-25T08:26:09;4.17;;;3.60;;
16127;SDS011;8168;49.036;7.690;2023-04-25T08:28:40;3.97;;;3.20;;
16127;SDS011;8168;49.036;7.690;2023-04-25T08:31:10;3.67;;;3.33;;
16127;SDS011;8168;49.036;7.690;2023-04-25T08:33:41;5.07;;;4.00;;
16127;SDS011;8168;49.036;7.690;2023-04-25T08:36:11;4.30;;;3.60;;
16127;SDS011;8168;49.036;7.690;2023-04-25T08:38:42;4.87;;;3.77;;
16127;SDS011;8168;49.036;7.690;2023-04-25T08:41:13;4.77;;;4.13;;
16127;SDS011;8168;49.036;7.690;2023-04-25T08:43:45;5.20;;;3.37;;
16127;SDS011;8168;49.036;7.690;2023-04-25T08:46:18;5.50;;;3.57;;
16127;SDS011;8168;49.036;7.690;2023-04-25T08:48:49;5.77;;;3.30;;
16127;SDS011;8168;49.036;7.690;2023-04-25T08:51:23;3.67;;;3.17;;
16127;SDS011;8168;49.036;7.690;2023-04-25T08:53:55;3.07;;;2.77;;
16127;SDS011;8168;49.036;7.690;2023-04-25T08:56:32;3.93;;;2.80;;
16127;SDS011;8168;49.036;7.690;2023-04-25T08:59:04;4.20;;;3.77;;
16127;SDS011;8168;49.036;7.690;2023-04-25T09:01:37;5.80;;;4.13;;
16127;SDS011;8168;49.036;7.690;2023-04-25T09:04:08;5.27;;;3.70;;
16127;SDS011;8168;49.036;7.690;2023-04-25T09:06:39;5.60;;;4.30;;
16127;SDS011;8168;49.036;7.690;2023-04-25T09:09:10;12.07;;;8.50;;
16127;SDS011;8168;49.036;7.690;2023-04-25T09:11:40;5.03;;;4.30;;
16127;SDS011;8168;49.036;7.690;2023-04-25T09:14:12;4.17;;;3.47;;
16127;SDS011;8168;49.036;7.690;2023-04-25T09:19:27;5.33;;;4.00;;
16127;SDS011;8168;49.036;7.690;2023-04-25T09:22:05;4.70;;;3.40;;
16127;SDS011;8168;49.036;7.690;2023-04-25T09:24:40;3.60;;;3.30;;
16127;SDS011;8168;49.036;7.690;2023-04-25T09:27:17;3.80;;;3.50;;
16127;SDS011;8168;49.036;7.690;2023-04-25T09:29:57;4.30;;;3.47;;
16127;SDS011;8168;49.036;7.690;2023-04-25T09:32:31;5.73;;;3.60;;
16127;SDS011;8168;49.036;7.690;2023-04-25T09:35:02;4.07;;;2.93;;
16127;SDS011;8168;49.036;7.690;2023-04-25T09:37:34;4.43;;;3.03;;
16127;SDS011;8168;49.036;7.690;2023-04-25T09:40:06;4.13;;;3.43;;
16127;SDS011;8168;49.036;7.690;2023-04-25T09:42:41;4.60;;;3.70;;
16127;SDS011;8168;49.036;7.690;2023-04-25T09:45:14;3.87;;;3.50;;
16127;SDS011;8168;49.036;7.690;2023-04-25T09:47:45;4.40;;;3.10;;
16127;SDS011;8168;49.036;7.690;2023-04-25T09:50:16;6.67;;;3.80;;
16127;SDS011;8168;49.036;7.690;2023-04-25T09:53:02;5.57;;;3.33;;
16127;SDS011;8168;49.036;7.690;2023-04-25T09:55:34;5.33;;;3.63;;
16127;SDS011;8168;49.036;7.690;2023-04-25T09:58:06;3.10;;;2.80;;
16127;SDS011;8168;49.036;7.690;2023-04-25T10:00:38;3.70;;;3.37;;
16127;SDS011;8168;49.036;7.690;2023-04-25T10:03:09;3.63;;;3.20;;
16127;SDS011;8168;49.036;7.690;2023-04-25T10:05:42;3.30;;;3.00;;
16127;SDS011;8168;49.036;7.690;2023-04-25T10:08:13;3.63;;;3.00;;
16127;SDS011;8168;49.036;7.690;2023-04-25T10:10:46;4.63;;;3.40;;
16127;SDS011;8168;49.036;7.690;2023-04-25T10:13:18;5.33;;;3.27;;
16127;SDS011;8168;49.036;7.690;2023-04-25T10:15:49;4.00;;;3.20;;
16127;SDS011;8168;49.036;7.690;2023-04-25T10:18:22;3.33;;;2.50;;
16127;SDS011;8168;49.036;7.690;2023-04-25T10:20:58;4.87;;;2.53;;
16127;SDS011;8168;49.036;7.690;2023-04-25T10:23:31;3.40;;;2.80;;
16127;SDS011;8168;49.036;7.690;2023-04-25T10:26:04;6.03;;;5.43;;
16127;SDS011;8168;49.036;7.690;2023-04-25T10:31:29;5.67;;;4.13;;
16127;SDS011;8168;49.036;7.690;2023-04-25T10:34:01;5.37;;;3.07;;
16127;SDS011;8168;49.036;7.690;2023-04-25T10:36:32;3.27;;;2.80;;
16127;SDS011;8168;49.036;7.690;2023-04-25T10:39:04;8.37;;;7.17;;
16127;SDS011;8168;49.036;7.690;2023-04-25T10:41:47;2.60;;;2.33;;
16127;SDS011;8168;49.036;7.690;2023-04-25T10:44:28;3.30;;;2.93;;
16127;SDS011;8168;49.036;7.690;2023-04-25T10:47:00;4.37;;;2.97;;
16127;SDS011;8168;49.036;7.690;2023-04-25T10:49:33;3.37;;;2.57;;
16127;SDS011;8168;49.036;7.690;2023-04-25T10:52:12;2.93;;;2.60;;
16127;SDS011;8168;49.036;7.690;2023-04-25T10:55:03;3.27;;;2.60;;
16127;SDS011;8168;49.036;7.690;2023-04-25T10:57:39;4.40;;;2.20;;
16127;SDS011;8168;49.036;7.690;2023-04-25T11:00:16;2.80;;;2.23;;
16127;SDS011;8168;49.036;7.690;2023-04-25T11:02:51;3.03;;;2.73;;
16127;SDS011;8168;49.036;7.690;2023-04-25T11:05:29;2.53;;;2.17;;
16127;SDS011;8168;49.036;7.690;2023-04-25T11:08:03;2.80;;;2.47;;
16127;SDS011;8168;49.036;7.690;2023-04-25T11:10:41;3.10;;;2.07;;
16127;SDS011;8168;49.036;7.690;2023-04-25T11:13:12;2.60;;;2.30;;
16127;SDS011;8168;49.036;7.690;2023-04-25T11:15:42;3.07;;;2.23;;
16127;SDS011;8168;49.036;7.690;2023-04-25T11:18:16;2.70;;;2.10;;
16127;SDS011;8168;49.036;7.690;2023-04-25T11:20:48;3.00;;;2.23;;
16127;SDS011;8168;49.036;7.690;2023-04-25T11:23:19;2.40;;;2.20;;
16127;SDS011;8168;49.036;7.690;2023-04-25T11:25:50;3.30;;;2.03;;
16127;SDS011;8168;49.036;7.690;2023-04-25T11:28:22;2.37;;;1.77;;
16127;SDS011;8168;49.036;7.690;2023-04-25T11:30:53;2.40;;;2.20;;
16127;SDS011;8168;49.036;7.690;2023-04-25T11:33:24;2.23;;;2.00;;
16127;SDS011;8168;49.036;7.690;2023-04-25T11:35:56;6.73;;;6.03;;
16127;SDS011;8168;49.036;7.690;2023-04-25T11:38:28;3.57;;;2.60;;
16127;SDS011;8168;49.036;7.690;2023-04-25T11:40:59;4.10;;;3.03;;
16127;SDS011;8168;49.036;7.690;2023-04-25T11:43:29;2.50;;;2.30;;
16127;SDS011;8168;49.036;7.690;2023-04-25T11:46:00;2.00;;;1.70;;
16127;SDS011;8168;49.036;7.690;2023-04-25T11:48:36;2.53;;;1.93;;
16127;SDS011;8168;49.036;7.690;2023-04-25T11:51:08;3.13;;;2.33;;
16127;SDS011;8168;49.036;7.690;2023-04-25T11:53:42;1.80;;;1.70;;
16127;SDS011;8168;49.036;7.690;2023-04-25T11:56:14;2.63;;;2.23;;
16127;SDS011;8168;49.036;7.690;2023-04-25T11:58:58;2.43;;;1.70;;
16127;SDS011;8168;49.036;7.690;2023-04-25T12:01:36;3.00;;;2.33;;
16127;SDS011;8168;49.036;7.690;2023-04-25T12:06:45;3.50;;;2.60;;
16127;SDS011;8168;49.036;7.690;2023-04-25T12:09:18;2.07;;;1.80;;
16127;SDS011;8168;49.036;7.690;2023-04-25T12:11:54;4.00;;;3.60;;
16127;SDS011;8168;49.036;7.690;2023-04-25T12:14:32;2.23;;;2.03;;
16127;SDS011;8168;49.036;7.690;2023-04-25T12:17:04;1.90;;;1.70;;
16127;SDS011;8168;49.036;7.690;2023-04-25T12:19:37;1.70;;;1.60;;
16127;SDS011;8168;49.036;7.690;2023-04-25T12:22:21;2.20;;;1.80;;
16127;SDS011;8168;49.036;7.690;2023-04-25T12:24:53;2.13;;;1.90;;
16127;SDS011;8168;49.036;7.690;2023-04-25T12:27:25;4.23;;;1.60;;
16127;SDS011;8168;49.036;7.690;2023-04-25T12:29:57;1.60;;;1.50;;
16127;SDS011;8168;49.036;7.690;2023-04-25T12:32:28;2.03;;;1.67;;
16127;SDS011;8168;49.036;7.690;2023-04-25T12:34:58;1.70;;;1.53;;
16127;SDS011;8168;49.036;7.690;2023-04-25T12:37:29;1.77;;;1.67;;
16127;SDS011;8168;49.036;7.690;2023-04-25T12:40:00;1.50;;;1.40;;
16127;SDS011;8168;49.036;7.690;2023-04-25T12:42:31;8.73;;;4.57;;
16127;SDS011;8168;49.036;7.690;2023-04-25T12:45:02;1.60;;;1.50;;
16127;SDS011;8168;49.036;7.690;2023-04-25T12:47:32;3.07;;;2.03;;
16127;SDS011;8168;49.036;7.690;2023-04-25T12:50:05;2.23;;;2.00;;
16127;SDS011;8168;49.036;7.690;2023-04-25T12:52:36;2.37;;;1.90;;
16127;SDS011;8168;49.036;7.690;2023-04-25T12:55:06;2.73;;;1.90;;
16127;SDS011;8168;49.036;7.690;2023-04-25T12:57:37;1.77;;;1.67;;
16127;SDS011;8168;49.036;7.690;2023-04-25T13:00:07;4.87;;;2.50;;
16127;SDS011;8168;49.036;7.690;2023-04-25T13:02:44;11.77;;;9.80;;
16127;SDS011;8168;49.036;7.690;2023-04-25T13:05:16;2.93;;;2.50;;
16127;SDS011;8168;49.036;7.690;2023-04-25T13:07:47;5.10;;;3.00;;
16127;SDS011;8168;49.036;7.690;2023-04-25T13:10:17;3.53;;;2.60;;
16127;SDS011;8168;49.036;7.690;2023-04-25T13:12:48;2.80;;;2.53;;
16127;SDS011;8168;49.036;7.690;2023-04-25T13:15:19;3.70;;;2.63;;
16127;SDS011;8168;49.036;7.690;2023-04-25T13:17:50;2.67;;;2.23;;
16127;SDS011;8168;49.036;7.690;2023-04-25T13:20:21;3.07;;;2.00;;
16127;SDS011;8168;49.036;7.690;2023-04-25T13:22:52;2.60;;;2.20;;
16127;SDS011;8168;49.036;7.690;2023-04-25T13:25:22;3.13;;;2.67;;
16127;SDS011;8168;49.036;7.690;2023-04-25T13:27:53;2.17;;;1.93;;
16127;SDS011;8168;49.036;7.690;2023-04-25T13:30:24;3.27;;;2.20;;
16127;SDS011;8168;49.036;7.690;2023-04-25T13:32:55;2.20;;;2.10;;
16127;SDS011;8168;49.036;7.690;2023-04-25T13:35:33;4.47;;;2.73;;
16127;SDS011;8168;49.036;7.690;2023-04-25T13:38:05;2.50;;;2.30;;
16127;SDS011;8168;49.036;7.690;2023-04-25T13:40:36;3.47;;;2.67;;
16127;SDS011;8168;49.036;7.690;2023-04-25T13:43:06;2.50;;;2.00;;
16127;SDS011;8168;49.036;7.690;2023-04-25T13:45:37;5.23;;;3.20;;
16127;SDS011;8168;49.036;7.690;2023-04-25T13:48:07;3.97;;;2.90;;
16127;SDS011;8168;49.036;7.690;2023-04-25T13:50:38;6.37;;;2.73;;
16127;SDS011;8168;49.036;7.690;2023-04-25T13:53:08;3.30;;;2.67;;
16127;SDS011;8168;49.036;7.690;2023-04-25T13:55:39;3.83;;;2.87;;
16127;SDS011;8168;49.036;7.690;2023-04-25T13:58:10;4.57;;;2.90;;
16127;SDS011;8168;49.036;7.690;2023-04-25T14:00:41;3.20;;;2.83;;
16127;SDS011;8168;49.036;7.690;2023-04-25T14:03:13;2.80;;;2.20;;
16127;SDS011;8168;49.036;7.690;2023-04-25T14:05:43;2.63;;;2.43;;
16127;SDS011;8168;49.036;7.690;2023-04-25T14:08:14;2.93;;;2.50;;
16127;SDS011;8168;49.036;7.690;2023-04-25T14:10:45;3.70;;;2.07;;
16127;SDS011;8168;49.036;7.690;2023-04-25T14:13:15;2.40;;;2.17;;
16127;SDS011;8168;49.036;7.690;2023-04-25T14:15:46;2.90;;;2.70;;
16127;SDS011;8168;49.036;7.690;2023-04-25T14:18:17;2.27;;;2.07;;
16127;SDS011;8168;49.036;7.690;2023-04-25T14:20:48;2.43;;;2.23;;
16127;SDS011;8168;49.036;7.690;2023-04-25T14:23:18;2.47;;;2.20;;
16127;SDS011;8168;49.036;7.690;2023-04-25T14:25:49;3.00;;;2.40;;
16127;SDS011;8168;49.036;7.690;2023-04-25T14:28:19;2.93;;;2.43;;
16127;SDS011;8168;49.036;7.690;2023-04-25T14:30:50;4.00;;;3.70;;
16127;SDS011;8168;49.036;7.690;2023-04-25T14:33:21;3.17;;;2.00;;
16127;SDS011;8168;49.036;7.690;2023-04-25T14:35:52;2.93;;;2.30;;
16127;SDS011;8168;49.036;7.690;2023-04-25T14:38:22;2.67;;;2.17;;
16127;SDS011;8168;49.036;7.690;2023-04-25T14:40:55;2.93;;;2.30;;
16127;SDS011;8168;49.036;7.690;2023-04-25T14:43:26;5.20;;;2.20;;
16127;SDS011;8168;49.036;7.690;2023-04-25T14:45:56;2.60;;;2.17;;
16127;SDS011;8168;49.036;7.690;2023-04-25T14:48:27;2.13;;;1.93;;
16127;SDS011;8168;49.036;7.690;2023-04-25T14:50:58;4.17;;;3.73;;
16127;SDS011;8168;49.036;7.690;2023-04-25T14:53:30;3.43;;;2.30;;
16127;SDS011;8168;49.036;7.690;2023-04-25T14:56:01;4.40;;;3.23;;
16127;SDS011;8168;49.036;7.690;2023-04-25T14:58:33;2.63;;;2.43;;
16127;SDS011;8168;49.036;7.690;2023-04-25T15:01:03;2.40;;;2.20;;
16127;SDS011;8168;49.036;7.690;2023-04-25T15:03:34;2.37;;;2.17;;
16127;SDS011;8168;49.036;7.690;2023-04-25T15:06:05;3.30;;;2.00;;
16127;SDS011;8168;49.036;7.690;2023-04-25T15:08:36;3.73;;;2.20;;
16127;SDS011;8168;49.036;7.690;2023-04-25T15:11:06;2.73;;;2.43;;
16127;SDS011;8168;49.036;7.690;2023-04-25T15:13:37;2.70;;;2.30;;
16127;SDS011;8168;49.036;7.690;2023-04-25T15:16:08;3.60;;;2.20;;
16127;SDS011;8168;49.036;7.690;2023-04-25T15:18:38;2.53;;;2.33;;
16127;SDS011;8168;49.036;7.690;2023-04-25T15:21:09;3.40;;;2.50;;
16127;SDS011;8168;49.036;7.690;2023-04-25T15:23:40;3.47;;;2.23;;
16127;SDS011;8168;49.036;7.690;2023-04-25T15:26:11;2.93;;;2.63;;
16127;SDS011;8168;49.036;7.690;2023-04-25T15:28:41;3.30;;;2.60;;
16127;SDS011;8168;49.036;7.690;2023-04-25T15:31:12;6.00;;;2.57;;
16127;SDS011;8168;49.036;7.690;2023-04-25T15:33:43;3.33;;;2.50;;